sensor_id;sensor_type;location;lat;lon;timestamp;temperature;humidity
12841;DHT22;6487;48.626;12.486;2022-07-29T00:01:39;21.90;93.10
12841;DHT22;6487;48.626;12.486;2022-07-29T00:04:08;21.90;93.10
12841;DHT22;6487;48.626;12.486;2022-07-29T00:06:37;22.00;93.00
12841;DHT22;6487;48.626;12.486;2022-07-29T00:09:05;22.00;93.10
12841;DHT22;6487;48.626;12.486;2022-07-29T00:11:34;21.90;93.30
12841;DHT22;6487;48.626;12.486;2022-07-29T00:14:04;22.00;93.40
12841;DHT22;6487;48.626;12.486;2022-07-29T00:16:33;22.00;93.30
12841;DHT22;6487;48.626;12.486;2022-07-29T00:19:01;21.90;93.20
12841;DHT22;6487;48.626;12.486;2022-07-29T00:21:30;21.80;93.00
12841;DHT22;6487;48.626;12.486;2022-07-29T00:23:58;21.90;93.00
12841;DHT22;6487;48.626;12.486;2022-07-29T00:26:27;21.80;93.40
12841;DHT22;6487;48.626;12.486;2022-07-29T00:28:58;21.70;93.30
12841;DHT22;6487;48.626;12.486;2022-07-29T00:31:48;21.80;93.50
12841;DHT22;6487;48.626;12.486;2022-07-29T00:34:17;21.80;93.60
12841;DHT22;6487;48.626;12.486;2022-07-29T00:37:03;21.70;93.40
12841;DHT22;6487;48.626;12.486;2022-07-29T00:39:33;21.70;93.10
12841;DHT22;6487;48.626;12.486;2022-07-29T00:42:03;21.70;93.10
12841;DHT22;6487;48.626;12.486;2022-07-29T00:44:36;21.70;93.60
12841;DHT22;6487;48.626;12.486;2022-07-29T00:47:07;21.80;93.60
12841;DHT22;6487;48.626;12.486;2022-07-29T00:49:37;21.70;93.50
12841;DHT22;6487;48.626;12.486;2022-07-29T00:52:08;21.60;93.20
12841;DHT22;6487;48.626;12.486;2022-07-29T00:54:39;21.50;93.30
12841;DHT22;6487;48.626;12.486;2022-07-29T00:57:11;21.60;93.50
12841;DHT22;6487;48.626;12.486;2022-07-29T00:59:40;21.60;93.20
12841;DHT22;6487;48.626;12.486;2022-07-29T01:02:10;21.50;93.30
12841;DHT22;6487;48.626;12.486;2022-07-29T01:04:39;21.30;93.50
12841;DHT22;6487;48.626;12.486;2022-07-29T01:07:08;21.40;93.90
12841;DHT22;6487;48.626;12.486;2022-07-29T01:09:37;21.30;94.00
12841;DHT22;6487;48.626;12.486;2022-07-29T01:12:14;21.20;93.80
12841;DHT22;6487;48.626;12.486;2022-07-29T01:14:45;21.20;93.80
12841;DHT22;6487;48.626;12.486;2022-07-29T01:17:18;21.20;93.90
12841;DHT22;6487;48.626;12.486;2022-07-29T01:20:00;21.30;94.20
12841;DHT22;6487;48.626;12.486;2022-07-29T01:23:07;21.20;94.40
12841;DHT22;6487;48.626;12.486;2022-07-29T01:26:00;21.20;94.50
12841;DHT22;6487;48.626;12.486;2022-07-29T01:29:05;21.00;94.40
12841;DHT22;6487;48.626;12.486;2022-07-29T01:31:43;21.10;94.50
12841;DHT22;6487;48.626;12.486;2022-07-29T01:34:29;21.10;94.50
12841;DHT22;6487;48.626;12.486;2022-07-29T01:37:08;21.20;94.50
12841;DHT22;6487;48.626;12.486;2022-07-29T01:39:42;21.10;94.10
12841;DHT22;6487;48.626;12.486;2022-07-29T01:42:15;21.00;94.20
12841;DHT22;6487;48.626;12.486;2022-07-29T01:44:54;21.00;94.50
12841;DHT22;6487;48.626;12.486;2022-07-29T01:47:31;20.90;94.70
12841;DHT22;6487;48.626;12.486;2022-07-29T01:50:07;20.90;95.10
12841;DHT22;6487;48.626;12.486;2022-07-29T01:52:42;20.90;95.00
12841;DHT22;6487;48.626;12.486;2022-07-29T01:55:14;20.90;94.90
12841;DHT22;6487;48.626;12.486;2022-07-29T01:57:45;21.00;95.00
12841;DHT22;6487;48.626;12.486;2022-07-29T02:00:17;20.90;94.60
12841;DHT22;6487;48.626;12.486;2022-07-29T02:02:47;20.90;95.00
12841;DHT22;6487;48.626;12.486;2022-07-29T02:05:18;21.00;95.00
12841;DHT22;6487;48.626;12.486;2022-07-29T02:07:48;20.80;94.60
12841;DHT22;6487;48.626;12.486;2022-07-29T02:10:20;20.80;94.70
12841;DHT22;6487;48.626;12.486;2022-07-29T02:12:53;20.70;94.90
12841;DHT22;6487;48.626;12.486;2022-07-29T02:15:25;20.60;95.00
12841;DHT22;6487;48.626;12.486;2022-07-29T02:18:00;20.50;95.20
12841;DHT22;6487;48.626;12.486;2022-07-29T02:20:30;20.60;95.50
12841;DHT22;6487;48.626;12.486;2022-07-29T02:22:59;20.60;95.40
12841;DHT22;6487;48.626;12.486;2022-07-29T02:25:29;20.60;95.50
12841;DHT22;6487;48.626;12.486;2022-07-29T02:28:04;20.50;95.40
12841;DHT22;6487;48.626;12.486;2022-07-29T02:30:38;20.60;95.80
12841;DHT22;6487;48.626;12.486;2022-07-29T02:33:09;20.50;96.10
12841;DHT22;6487;48.626;12.486;2022-07-29T02:35:39;20.60;95.80
12841;DHT22;6487;48.626;12.486;2022-07-29T02:38:10;20.60;95.70
12841;DHT22;6487;48.626;12.486;2022-07-29T02:40:59;20.70;95.90
12841;DHT22;6487;48.626;12.486;2022-07-29T02:43:29;20.60;95.70
12841;DHT22;6487;48.626;12.486;2022-07-29T02:46:00;20.60;96.10
12841;DHT22;6487;48.626;12.486;2022-07-29T02:48:41;20.60;96.00
12841;DHT22;6487;48.626;12.486;2022-07-29T02:51:23;20.50;96.10
12841;DHT22;6487;48.626;12.486;2022-07-29T02:54:11;20.50;96.40
12841;DHT22;6487;48.626;12.486;2022-07-29T02:56:46;20.40;96.20
12841;DHT22;6487;48.626;12.486;2022-07-29T02:59:18;20.50;96.20
12841;DHT22;6487;48.626;12.486;2022-07-29T03:01:52;20.40;96.30
12841;DHT22;6487;48.626;12.486;2022-07-29T03:04:24;20.30;96.40
12841;DHT22;6487;48.626;12.486;2022-07-29T03:06:53;20.30;96.40
12841;DHT22;6487;48.626;12.486;2022-07-29T03:09:23;20.30;96.50
12841;DHT22;6487;48.626;12.486;2022-07-29T03:11:52;20.30;96.60
12841;DHT22;6487;48.626;12.486;2022-07-29T03:14:22;20.30;96.40
12841;DHT22;6487;48.626;12.486;2022-07-29T03:16:52;20.20;96.30
12841;DHT22;6487;48.626;12.486;2022-07-29T03:19:21;20.20;96.30
12841;DHT22;6487;48.626;12.486;2022-07-29T03:21:50;20.20;96.50
12841;DHT22;6487;48.626;12.486;2022-07-29T03:24:29;20.20;96.40
12841;DHT22;6487;48.626;12.486;2022-07-29T03:26:58;20.20;96.60
12841;DHT22;6487;48.626;12.486;2022-07-29T03:29:27;20.20;96.60
12841;DHT22;6487;48.626;12.486;2022-07-29T03:32:02;20.20;96.50
12841;DHT22;6487;48.626;12.486;2022-07-29T03:34:34;20.20;96.60
12841;DHT22;6487;48.626;12.486;2022-07-29T03:37:04;20.20;96.90
12841;DHT22;6487;48.626;12.486;2022-07-29T03:39:37;20.20;97.20
12841;DHT22;6487;48.626;12.486;2022-07-29T03:42:10;20.20;96.90
12841;DHT22;6487;48.626;12.486;2022-07-29T03:44:41;20.20;96.90
12841;DHT22;6487;48.626;12.486;2022-07-29T03:47:13;20.20;97.00
12841;DHT22;6487;48.626;12.486;2022-07-29T03:49:44;20.20;97.40
12841;DHT22;6487;48.626;12.486;2022-07-29T03:52:15;20.20;97.10
12841;DHT22;6487;48.626;12.486;2022-07-29T03:54:43;20.20;97.20
12841;DHT22;6487;48.626;12.486;2022-07-29T03:57:12;20.20;97.60
12841;DHT22;6487;48.626;12.486;2022-07-29T03:59:41;20.20;97.70
12841;DHT22;6487;48.626;12.486;2022-07-29T04:02:12;20.20;97.70
12841;DHT22;6487;48.626;12.486;2022-07-29T04:04:47;20.20;97.80
12841;DHT22;6487;48.626;12.486;2022-07-29T04:07:15;20.10;98.00
12841;DHT22;6487;48.626;12.486;2022-07-29T04:09:44;20.10;98.00
12841;DHT22;6487;48.626;12.486;2022-07-29T04:12:12;20.20;97.80
12841;DHT22;6487;48.626;12.486;2022-07-29T04:14:41;20.20;98.00
12841;DHT22;6487;48.626;12.486;2022-07-29T04:17:09;20.20;97.90
12841;DHT22;6487;48.626;12.486;2022-07-29T04:19:39;20.20;98.40
12841;DHT22;6487;48.626;12.486;2022-07-29T04:22:07;20.20;98.90
12841;DHT22;6487;48.626;12.486;2022-07-29T04:24:35;20.20;98.60
12841;DHT22;6487;48.626;12.486;2022-07-29T04:27:04;20.30;98.60
12841;DHT22;6487;48.626;12.486;2022-07-29T04:29:32;20.30;98.40
12841;DHT22;6487;48.626;12.486;2022-07-29T04:32:00;20.20;98.40
12841;DHT22;6487;48.626;12.486;2022-07-29T04:34:29;20.10;98.60
12841;DHT22;6487;48.626;12.486;2022-07-29T04:36:58;20.20;98.80
12841;DHT22;6487;48.626;12.486;2022-07-29T04:39:27;20.30;99.10
12841;DHT22;6487;48.626;12.486;2022-07-29T04:41:56;20.30;98.80
12841;DHT22;6487;48.626;12.486;2022-07-29T04:44:25;20.30;99.00
12841;DHT22;6487;48.626;12.486;2022-07-29T04:46:56;20.30;99.00
12841;DHT22;6487;48.626;12.486;2022-07-29T04:49:24;20.30;98.70
12841;DHT22;6487;48.626;12.486;2022-07-29T04:51:53;20.30;98.60
12841;DHT22;6487;48.626;12.486;2022-07-29T04:54:23;20.30;98.80
12841;DHT22;6487;48.626;12.486;2022-07-29T04:56:52;20.30;99.00
12841;DHT22;6487;48.626;12.486;2022-07-29T04:59:20;20.40;98.90
12841;DHT22;6487;48.626;12.486;2022-07-29T05:01:49;20.40;99.00
12841;DHT22;6487;48.626;12.486;2022-07-29T05:04:17;20.40;98.90
12841;DHT22;6487;48.626;12.486;2022-07-29T05:06:46;20.40;98.80
12841;DHT22;6487;48.626;12.486;2022-07-29T05:09:15;20.50;99.20
12841;DHT22;6487;48.626;12.486;2022-07-29T05:11:44;20.50;99.30
12841;DHT22;6487;48.626;12.486;2022-07-29T05:14:13;20.60;99.30
12841;DHT22;6487;48.626;12.486;2022-07-29T05:16:42;20.60;98.70
12841;DHT22;6487;48.626;12.486;2022-07-29T05:19:10;20.60;99.00
12841;DHT22;6487;48.626;12.486;2022-07-29T05:21:40;20.60;99.10
12841;DHT22;6487;48.626;12.486;2022-07-29T05:24:09;20.50;99.00
12841;DHT22;6487;48.626;12.486;2022-07-29T05:26:38;20.50;99.10
12841;DHT22;6487;48.626;12.486;2022-07-29T05:29:09;20.50;99.40
12841;DHT22;6487;48.626;12.486;2022-07-29T05:31:57;20.50;99.10
12841;DHT22;6487;48.626;12.486;2022-07-29T05:34:26;20.30;98.90
12841;DHT22;6487;48.626;12.486;2022-07-29T05:36:55;20.40;99.10
12841;DHT22;6487;48.626;12.486;2022-07-29T05:39:23;20.50;98.80
12841;DHT22;6487;48.626;12.486;2022-07-29T05:42:11;20.50;98.60
12841;DHT22;6487;48.626;12.486;2022-07-29T05:44:41;20.40;98.70
12841;DHT22;6487;48.626;12.486;2022-07-29T05:47:10;20.50;99.00
12841;DHT22;6487;48.626;12.486;2022-07-29T05:49:38;20.60;99.30
12841;DHT22;6487;48.626;12.486;2022-07-29T05:52:07;20.50;98.90
12841;DHT22;6487;48.626;12.486;2022-07-29T05:54:35;20.70;99.00
12841;DHT22;6487;48.626;12.486;2022-07-29T05:57:04;20.70;98.40
12841;DHT22;6487;48.626;12.486;2022-07-29T05:59:35;20.70;98.30
12841;DHT22;6487;48.626;12.486;2022-07-29T06:02:05;20.90;98.40
12841;DHT22;6487;48.626;12.486;2022-07-29T06:04:34;20.90;98.00
12841;DHT22;6487;48.626;12.486;2022-07-29T06:07:03;20.90;98.10
12841;DHT22;6487;48.626;12.486;2022-07-29T06:09:32;21.00;98.20
12841;DHT22;6487;48.626;12.486;2022-07-29T06:12:03;21.20;97.70
12841;DHT22;6487;48.626;12.486;2022-07-29T06:14:32;21.30;97.70
12841;DHT22;6487;48.626;12.486;2022-07-29T06:17:00;21.20;97.30
12841;DHT22;6487;48.626;12.486;2022-07-29T06:19:30;21.40;97.20
12841;DHT22;6487;48.626;12.486;2022-07-29T06:21:58;21.50;97.10
12841;DHT22;6487;48.626;12.486;2022-07-29T06:24:27;21.50;96.60
12841;DHT22;6487;48.626;12.486;2022-07-29T06:26:55;21.60;96.80
12841;DHT22;6487;48.626;12.486;2022-07-29T06:29:23;21.50;96.20
12841;DHT22;6487;48.626;12.486;2022-07-29T06:31:52;21.60;96.20
12841;DHT22;6487;48.626;12.486;2022-07-29T06:34:20;21.70;96.20
12841;DHT22;6487;48.626;12.486;2022-07-29T06:36:50;21.70;96.20
12841;DHT22;6487;48.626;12.486;2022-07-29T06:39:20;21.80;96.30
12841;DHT22;6487;48.626;12.486;2022-07-29T06:41:49;21.80;96.50
12841;DHT22;6487;48.626;12.486;2022-07-29T06:44:18;22.00;96.40
12841;DHT22;6487;48.626;12.486;2022-07-29T06:46:46;21.90;96.20
12841;DHT22;6487;48.626;12.486;2022-07-29T06:49:16;22.00;96.00
12841;DHT22;6487;48.626;12.486;2022-07-29T06:51:45;22.10;96.20
12841;DHT22;6487;48.626;12.486;2022-07-29T06:54:14;22.30;96.00
12841;DHT22;6487;48.626;12.486;2022-07-29T06:56:44;22.30;95.20
12841;DHT22;6487;48.626;12.486;2022-07-29T06:59:12;22.40;95.40
12841;DHT22;6487;48.626;12.486;2022-07-29T07:01:42;22.60;95.20
12841;DHT22;6487;48.626;12.486;2022-07-29T07:04:11;22.30;94.40
12841;DHT22;6487;48.626;12.486;2022-07-29T07:06:42;22.40;95.00
12841;DHT22;6487;48.626;12.486;2022-07-29T07:09:11;22.40;94.90
12841;DHT22;6487;48.626;12.486;2022-07-29T07:11:40;22.70;94.90
12841;DHT22;6487;48.626;12.486;2022-07-29T07:14:09;22.80;94.50
12841;DHT22;6487;48.626;12.486;2022-07-29T07:16:37;23.00;95.10
12841;DHT22;6487;48.626;12.486;2022-07-29T07:19:05;23.20;94.80
12841;DHT22;6487;48.626;12.486;2022-07-29T07:21:34;23.50;94.00
12841;DHT22;6487;48.626;12.486;2022-07-29T07:24:03;23.60;93.70
12841;DHT22;6487;48.626;12.486;2022-07-29T07:26:31;23.50;93.40
12841;DHT22;6487;48.626;12.486;2022-07-29T07:29:01;23.50;93.80
12841;DHT22;6487;48.626;12.486;2022-07-29T07:31:29;23.80;93.90
12841;DHT22;6487;48.626;12.486;2022-07-29T07:33:58;24.00;93.90
12841;DHT22;6487;48.626;12.486;2022-07-29T07:36:26;24.10;94.00
12841;DHT22;6487;48.626;12.486;2022-07-29T07:38:55;24.40;93.90
12841;DHT22;6487;48.626;12.486;2022-07-29T07:41:23;24.40;93.40
12841;DHT22;6487;48.626;12.486;2022-07-29T07:43:58;24.60;92.60
12841;DHT22;6487;48.626;12.486;2022-07-29T07:46:28;24.80;92.50
12841;DHT22;6487;48.626;12.486;2022-07-29T07:48:56;24.70;91.90
12841;DHT22;6487;48.626;12.486;2022-07-29T07:51:25;25.10;92.10
12841;DHT22;6487;48.626;12.486;2022-07-29T07:53:53;25.00;91.30
12841;DHT22;6487;48.626;12.486;2022-07-29T07:56:23;24.90;91.10
12841;DHT22;6487;48.626;12.486;2022-07-29T07:58:51;25.00;91.70
12841;DHT22;6487;48.626;12.486;2022-07-29T08:01:20;25.20;92.20
12841;DHT22;6487;48.626;12.486;2022-07-29T08:03:51;25.30;91.90
12841;DHT22;6487;48.626;12.486;2022-07-29T08:06:19;25.20;91.80
12841;DHT22;6487;48.626;12.486;2022-07-29T08:08:47;25.40;91.80
12841;DHT22;6487;48.626;12.486;2022-07-29T08:11:17;25.60;91.10
12841;DHT22;6487;48.626;12.486;2022-07-29T08:13:46;25.70;91.30
12841;DHT22;6487;48.626;12.486;2022-07-29T08:16:14;25.90;91.30
12841;DHT22;6487;48.626;12.486;2022-07-29T08:18:44;26.00;90.70
12841;DHT22;6487;48.626;12.486;2022-07-29T08:21:15;26.20;90.60
12841;DHT22;6487;48.626;12.486;2022-07-29T08:23:44;26.20;87.70
12841;DHT22;6487;48.626;12.486;2022-07-29T08:26:25;25.90;89.40
12841;DHT22;6487;48.626;12.486;2022-07-29T08:28:54;26.30;90.00
12841;DHT22;6487;48.626;12.486;2022-07-29T08:31:22;26.30;89.20
12841;DHT22;6487;48.626;12.486;2022-07-29T08:33:50;26.40;89.30
12841;DHT22;6487;48.626;12.486;2022-07-29T08:36:20;26.70;88.60
12841;DHT22;6487;48.626;12.486;2022-07-29T08:38:49;26.70;87.20
12841;DHT22;6487;48.626;12.486;2022-07-29T08:41:18;26.80;88.30
12841;DHT22;6487;48.626;12.486;2022-07-29T08:43:46;27.00;86.60
12841;DHT22;6487;48.626;12.486;2022-07-29T08:46:15;27.20;86.00
12841;DHT22;6487;48.626;12.486;2022-07-29T08:48:45;27.20;86.90
12841;DHT22;6487;48.626;12.486;2022-07-29T08:51:15;27.40;86.30
12841;DHT22;6487;48.626;12.486;2022-07-29T08:53:47;27.70;84.10
12841;DHT22;6487;48.626;12.486;2022-07-29T08:56:17;27.80;83.60
12841;DHT22;6487;48.626;12.486;2022-07-29T08:58:47;28.00;86.20
12841;DHT22;6487;48.626;12.486;2022-07-29T09:01:22;28.00;85.10
12841;DHT22;6487;48.626;12.486;2022-07-29T09:04:04;28.00;84.10
12841;DHT22;6487;48.626;12.486;2022-07-29T09:06:37;28.30;82.80
12841;DHT22;6487;48.626;12.486;2022-07-29T09:09:17;28.40;81.40
12841;DHT22;6487;48.626;12.486;2022-07-29T09:11:45;28.50;79.80
12841;DHT22;6487;48.626;12.486;2022-07-29T09:14:14;28.50;81.20
12841;DHT22;6487;48.626;12.486;2022-07-29T09:16:51;28.50;81.40
12841;DHT22;6487;48.626;12.486;2022-07-29T09:19:22;28.60;81.50
12841;DHT22;6487;48.626;12.486;2022-07-29T09:21:52;28.80;81.20
12841;DHT22;6487;48.626;12.486;2022-07-29T09:24:41;28.90;78.10
12841;DHT22;6487;48.626;12.486;2022-07-29T09:27:22;28.60;77.00
12841;DHT22;6487;48.626;12.486;2022-07-29T09:29:57;28.50;74.70
12841;DHT22;6487;48.626;12.486;2022-07-29T09:32:27;28.60;73.90
12841;DHT22;6487;48.626;12.486;2022-07-29T09:35:16;28.60;75.30
12841;DHT22;6487;48.626;12.486;2022-07-29T09:37:46;29.00;74.80
12841;DHT22;6487;48.626;12.486;2022-07-29T09:40:18;29.20;74.60
12841;DHT22;6487;48.626;12.486;2022-07-29T09:42:47;29.40;72.80
12841;DHT22;6487;48.626;12.486;2022-07-29T09:45:27;29.60;71.80
12841;DHT22;6487;48.626;12.486;2022-07-29T09:47:58;29.70;72.20
12841;DHT22;6487;48.626;12.486;2022-07-29T09:50:37;29.80;72.50
12841;DHT22;6487;48.626;12.486;2022-07-29T09:53:07;29.90;71.30
12841;DHT22;6487;48.626;12.486;2022-07-29T09:55:48;29.90;70.70
12841;DHT22;6487;48.626;12.486;2022-07-29T09:58:18;30.10;69.00
12841;DHT22;6487;48.626;12.486;2022-07-29T10:00:49;30.20;72.60
12841;DHT22;6487;48.626;12.486;2022-07-29T10:03:18;30.40;70.50
12841;DHT22;6487;48.626;12.486;2022-07-29T10:06:07;30.60;72.20
12841;DHT22;6487;48.626;12.486;2022-07-29T10:08:36;30.60;70.60
12841;DHT22;6487;48.626;12.486;2022-07-29T10:11:14;30.60;67.30
12841;DHT22;6487;48.626;12.486;2022-07-29T10:13:45;30.40;66.10
12841;DHT22;6487;48.626;12.486;2022-07-29T10:16:15;30.60;68.40
12841;DHT22;6487;48.626;12.486;2022-07-29T10:18:44;30.70;70.10
12841;DHT22;6487;48.626;12.486;2022-07-29T10:21:14;30.70;69.00
12841;DHT22;6487;48.626;12.486;2022-07-29T10:24:02;30.80;72.50
12841;DHT22;6487;48.626;12.486;2022-07-29T10:26:41;30.80;70.30
12841;DHT22;6487;48.626;12.486;2022-07-29T10:29:11;30.80;69.40
12841;DHT22;6487;48.626;12.486;2022-07-29T10:31:47;30.60;66.50
12841;DHT22;6487;48.626;12.486;2022-07-29T10:34:30;30.60;61.90
12841;DHT22;6487;48.626;12.486;2022-07-29T10:37:19;30.80;65.40
12841;DHT22;6487;48.626;12.486;2022-07-29T10:39:57;31.00;66.90
12841;DHT22;6487;48.626;12.486;2022-07-29T10:42:52;30.90;62.30
12841;DHT22;6487;48.626;12.486;2022-07-29T10:45:22;30.70;61.80
12841;DHT22;6487;48.626;12.486;2022-07-29T10:48:02;31.00;62.40
12841;DHT22;6487;48.626;12.486;2022-07-29T10:50:51;30.30;66.40
12841;DHT22;6487;48.626;12.486;2022-07-29T10:53:21;30.30;62.00
12841;DHT22;6487;48.626;12.486;2022-07-29T10:55:52;30.50;62.70
12841;DHT22;6487;48.626;12.486;2022-07-29T10:58:23;30.80;63.70
12841;DHT22;6487;48.626;12.486;2022-07-29T11:00:53;30.80;63.30
12841;DHT22;6487;48.626;12.486;2022-07-29T11:03:45;30.80;66.70
12841;DHT22;6487;48.626;12.486;2022-07-29T11:06:19;31.00;63.50
12841;DHT22;6487;48.626;12.486;2022-07-29T11:09:17;30.70;63.30
12841;DHT22;6487;48.626;12.486;2022-07-29T11:12:01;30.60;62.50
12841;DHT22;6487;48.626;12.486;2022-07-29T11:14:56;30.40;62.90
12841;DHT22;6487;48.626;12.486;2022-07-29T11:17:26;30.30;62.70
12841;DHT22;6487;48.626;12.486;2022-07-29T11:20:37;30.40;66.40
12841;DHT22;6487;48.626;12.486;2022-07-29T11:23:21;30.60;65.20
12841;DHT22;6487;48.626;12.486;2022-07-29T11:26:17;30.80;64.70
12841;DHT22;6487;48.626;12.486;2022-07-29T11:28:54;30.60;61.20
12841;DHT22;6487;48.626;12.486;2022-07-29T11:31:35;30.20;63.00
12841;DHT22;6487;48.626;12.486;2022-07-29T11:34:25;29.70;63.10
12841;DHT22;6487;48.626;12.486;2022-07-29T11:37:20;29.70;64.50
12841;DHT22;6487;48.626;12.486;2022-07-29T11:40:15;29.50;65.00
12841;DHT22;6487;48.626;12.486;2022-07-29T11:42:48;29.60;65.50
12841;DHT22;6487;48.626;12.486;2022-07-29T11:45:25;29.60;64.70
12841;DHT22;6487;48.626;12.486;2022-07-29T11:48:20;29.90;66.30
12841;DHT22;6487;48.626;12.486;2022-07-29T11:50:58;30.00;64.30
12841;DHT22;6487;48.626;12.486;2022-07-29T11:53:28;30.30;65.50
12841;DHT22;6487;48.626;12.486;2022-07-29T11:55:59;30.30;63.50
12841;DHT22;6487;48.626;12.486;2022-07-29T11:58:29;30.20;63.50
12841;DHT22;6487;48.626;12.486;2022-07-29T12:00:59;29.80;63.30
12841;DHT22;6487;48.626;12.486;2022-07-29T12:03:32;29.90;64.90
12841;DHT22;6487;48.626;12.486;2022-07-29T12:06:04;29.30;64.50
12841;DHT22;6487;48.626;12.486;2022-07-29T12:08:41;29.70;64.00
12841;DHT22;6487;48.626;12.486;2022-07-29T12:11:18;29.40;63.60
12841;DHT22;6487;48.626;12.486;2022-07-29T12:13:49;29.50;65.40
12841;DHT22;6487;48.626;12.486;2022-07-29T12:16:19;29.80;65.00
12841;DHT22;6487;48.626;12.486;2022-07-29T12:19:00;29.80;64.40
12841;DHT22;6487;48.626;12.486;2022-07-29T12:21:36;29.70;64.30
12841;DHT22;6487;48.626;12.486;2022-07-29T12:24:22;29.90;65.00
12841;DHT22;6487;48.626;12.486;2022-07-29T12:26:54;29.90;64.70
12841;DHT22;6487;48.626;12.486;2022-07-29T12:29:24;30.00;66.80
12841;DHT22;6487;48.626;12.486;2022-07-29T12:32:02;30.20;66.70
12841;DHT22;6487;48.626;12.486;2022-07-29T12:34:42;30.20;64.80
12841;DHT22;6487;48.626;12.486;2022-07-29T12:37:10;30.40;65.30
12841;DHT22;6487;48.626;12.486;2022-07-29T12:39:39;30.20;65.30
12841;DHT22;6487;48.626;12.486;2022-07-29T12:42:11;30.10;63.90
12841;DHT22;6487;48.626;12.486;2022-07-29T12:44:45;30.40;69.30
12841;DHT22;6487;48.626;12.486;2022-07-29T12:47:15;30.80;68.60
12841;DHT22;6487;48.626;12.486;2022-07-29T12:49:46;30.90;67.50
12841;DHT22;6487;48.626;12.486;2022-07-29T12:52:28;30.90;65.20
12841;DHT22;6487;48.626;12.486;2022-07-29T12:54:58;31.00;64.90
12841;DHT22;6487;48.626;12.486;2022-07-29T12:57:27;31.00;64.80
12841;DHT22;6487;48.626;12.486;2022-07-29T13:00:07;31.00;64.10
12841;DHT22;6487;48.626;12.486;2022-07-29T13:02:38;31.10;63.20
12841;DHT22;6487;48.626;12.486;2022-07-29T13:05:10;31.30;66.20
12841;DHT22;6487;48.626;12.486;2022-07-29T13:07:39;31.20;62.50
12841;DHT22;6487;48.626;12.486;2022-07-29T13:10:23;30.90;61.80
12841;DHT22;6487;48.626;12.486;2022-07-29T13:13:05;31.10;63.20
12841;DHT22;6487;48.626;12.486;2022-07-29T13:15:35;31.30;63.20
12841;DHT22;6487;48.626;12.486;2022-07-29T13:18:05;31.20;64.00
12841;DHT22;6487;48.626;12.486;2022-07-29T13:20:56;31.20;63.90
12841;DHT22;6487;48.626;12.486;2022-07-29T13:23:25;30.90;65.10
12841;DHT22;6487;48.626;12.486;2022-07-29T13:25:53;31.00;64.20
12841;DHT22;6487;48.626;12.486;2022-07-29T13:28:21;31.00;63.40
12841;DHT22;6487;48.626;12.486;2022-07-29T13:30:50;31.10;63.40
12841;DHT22;6487;48.626;12.486;2022-07-29T13:33:18;31.10;62.90
12841;DHT22;6487;48.626;12.486;2022-07-29T13:35:46;31.20;63.90
12841;DHT22;6487;48.626;12.486;2022-07-29T13:38:16;31.30;64.60
12841;DHT22;6487;48.626;12.486;2022-07-29T13:40:45;31.40;68.00
12841;DHT22;6487;48.626;12.486;2022-07-29T13:43:13;31.50;66.40
12841;DHT22;6487;48.626;12.486;2022-07-29T13:45:41;31.50;64.80
12841;DHT22;6487;48.626;12.486;2022-07-29T13:48:10;31.60;63.60
12841;DHT22;6487;48.626;12.486;2022-07-29T13:50:38;31.60;64.30
12841;DHT22;6487;48.626;12.486;2022-07-29T13:53:06;31.60;61.00
12841;DHT22;6487;48.626;12.486;2022-07-29T13:55:44;31.90;63.80
12841;DHT22;6487;48.626;12.486;2022-07-29T13:58:14;31.80;62.00
12841;DHT22;6487;48.626;12.486;2022-07-29T14:00:42;31.60;60.80
12841;DHT22;6487;48.626;12.486;2022-07-29T14:03:10;31.60;62.50
12841;DHT22;6487;48.626;12.486;2022-07-29T14:05:39;31.70;62.50
12841;DHT22;6487;48.626;12.486;2022-07-29T14:08:07;31.60;60.50
12841;DHT22;6487;48.626;12.486;2022-07-29T14:10:35;31.20;61.40
12841;DHT22;6487;48.626;12.486;2022-07-29T14:13:05;31.50;63.40
12841;DHT22;6487;48.626;12.486;2022-07-29T14:15:51;31.50;59.50
12841;DHT22;6487;48.626;12.486;2022-07-29T14:18:19;31.00;60.50
12841;DHT22;6487;48.626;12.486;2022-07-29T14:20:48;30.90;63.60
12841;DHT22;6487;48.626;12.486;2022-07-29T14:23:17;31.00;63.20
12841;DHT22;6487;48.626;12.486;2022-07-29T14:25:46;31.40;63.20
12841;DHT22;6487;48.626;12.486;2022-07-29T14:28:16;31.50;64.70
12841;DHT22;6487;48.626;12.486;2022-07-29T14:30:45;31.60;60.50
12841;DHT22;6487;48.626;12.486;2022-07-29T14:33:13;31.60;62.10
12841;DHT22;6487;48.626;12.486;2022-07-29T14:35:42;31.80;61.90
12841;DHT22;6487;48.626;12.486;2022-07-29T14:38:10;31.70;59.70
12841;DHT22;6487;48.626;12.486;2022-07-29T14:40:39;31.70;62.70
12841;DHT22;6487;48.626;12.486;2022-07-29T14:43:07;31.50;61.30
12841;DHT22;6487;48.626;12.486;2022-07-29T14:45:37;31.50;62.10
12841;DHT22;6487;48.626;12.486;2022-07-29T14:48:05;31.30;63.60
12841;DHT22;6487;48.626;12.486;2022-07-29T14:50:34;31.30;62.30
12841;DHT22;6487;48.626;12.486;2022-07-29T14:53:02;31.30;64.50
12841;DHT22;6487;48.626;12.486;2022-07-29T14:55:31;31.20;68.00
12841;DHT22;6487;48.626;12.486;2022-07-29T14:57:59;31.20;69.20
12841;DHT22;6487;48.626;12.486;2022-07-29T15:00:38;31.10;67.50
12841;DHT22;6487;48.626;12.486;2022-07-29T15:03:06;31.10;70.50
12841;DHT22;6487;48.626;12.486;2022-07-29T15:05:37;31.00;63.50
12841;DHT22;6487;48.626;12.486;2022-07-29T15:08:05;30.90;64.20
12841;DHT22;6487;48.626;12.486;2022-07-29T15:10:35;30.70;67.20
12841;DHT22;6487;48.626;12.486;2022-07-29T15:13:03;30.70;69.30
12841;DHT22;6487;48.626;12.486;2022-07-29T15:15:32;30.70;68.10
12841;DHT22;6487;48.626;12.486;2022-07-29T15:18:02;30.70;69.90
12841;DHT22;6487;48.626;12.486;2022-07-29T15:20:30;30.70;68.60
12841;DHT22;6487;48.626;12.486;2022-07-29T15:22:59;30.60;66.20
12841;DHT22;6487;48.626;12.486;2022-07-29T15:25:27;30.60;69.60
12841;DHT22;6487;48.626;12.486;2022-07-29T15:27:55;30.50;65.80
12841;DHT22;6487;48.626;12.486;2022-07-29T15:30:29;30.40;67.90
12841;DHT22;6487;48.626;12.486;2022-07-29T15:33:02;30.30;67.90
12841;DHT22;6487;48.626;12.486;2022-07-29T15:35:30;30.30;70.00
12841;DHT22;6487;48.626;12.486;2022-07-29T15:38:06;30.20;67.40
12841;DHT22;6487;48.626;12.486;2022-07-29T15:40:37;30.00;66.30
12841;DHT22;6487;48.626;12.486;2022-07-29T15:43:07;30.10;69.50
12841;DHT22;6487;48.626;12.486;2022-07-29T15:45:36;30.00;66.60
12841;DHT22;6487;48.626;12.486;2022-07-29T15:48:08;30.00;70.50
12841;DHT22;6487;48.626;12.486;2022-07-29T15:50:40;30.10;71.30
12841;DHT22;6487;48.626;12.486;2022-07-29T15:53:12;30.00;68.10
12841;DHT22;6487;48.626;12.486;2022-07-29T15:55:41;29.90;68.70
12841;DHT22;6487;48.626;12.486;2022-07-29T15:58:10;29.80;70.20
12841;DHT22;6487;48.626;12.486;2022-07-29T16:00:38;29.80;67.50
12841;DHT22;6487;48.626;12.486;2022-07-29T16:03:08;29.70;67.50